sensor_id;sensor_type;location;lat;lon;timestamp;pressure;altitude;pressure_sealevel;temperature;humidity
58843;BME280;44614;54.356;10.100;2022-11-21T00:00:30;100289.97;;;-2.37;95.91
58843;BME280;44614;54.356;10.100;2022-11-21T00:02:57;100294.38;;;-2.36;95.88
58843;BME280;44614;54.356;10.100;2022-11-21T00:05:24;100290.84;;;-2.36;96.00
58843;BME280;44614;54.356;10.100;2022-11-21T00:07:49;100297.91;;;-2.35;95.84
58843;BME280;44614;54.356;10.100;2022-11-21T00:10:15;100299.75;;;-2.36;95.79
58843;BME280;44614;54.356;10.100;2022-11-21T00:12:40;100296.38;;;-2.38;95.73
58843;BME280;44614;54.356;10.100;2022-11-21T00:15:06;100291.00;;;-2.38;95.73
58843;BME280;44614;54.356;10.100;2022-11-21T00:17:31;100292.00;;;-2.39;95.85
58843;BME280;44614;54.356;10.100;2022-11-21T00:19:57;100288.59;;;-2.41;95.76
58843;BME280;44614;54.356;10.100;2022-11-21T00:22:22;100287.63;;;-2.40;96.01
58843;BME280;44614;54.356;10.100;2022-11-21T00:24:47;100287.63;;;-2.40;95.99
58843;BME280;44614;54.356;10.100;2022-11-21T00:27:13;100320.56;;;-2.38;96.24
58843;BME280;44614;54.356;10.100;2022-11-21T00:29:38;100268.25;;;-2.43;96.08
58843;BME280;44614;54.356;10.100;2022-11-21T00:32:03;100277.53;;;-2.38;96.20
58843;BME280;44614;54.356;10.100;2022-11-21T00:34:29;100278.38;;;-2.37;96.22
58843;BME280;44614;54.356;10.100;2022-11-21T00:36:54;100274.72;;;-2.36;96.33
58843;BME280;44614;54.356;10.100;2022-11-21T00:39:19;100284.59;;;-2.37;96.28
58843;BME280;44614;54.356;10.100;2022-11-21T00:41:45;100275.69;;;-2.37;96.27
58843;BME280;44614;54.356;10.100;2022-11-21T00:44:10;100277.41;;;-2.36;96.46
58843;BME280;44614;54.356;10.100;2022-11-21T00:46:35;100272.72;;;-2.34;96.17
58843;BME280;44614;54.356;10.100;2022-11-21T00:49:00;100278.94;;;-2.34;96.44
58843;BME280;44614;54.356;10.100;2022-11-21T00:51:26;100270.84;;;-2.34;96.68
58843;BME280;44614;54.356;10.100;2022-11-21T00:53:51;100253.81;;;-2.42;96.75
58843;BME280;44614;54.356;10.100;2022-11-21T00:56:16;100260.81;;;-2.32;96.72
58843;BME280;44614;54.356;10.100;2022-11-21T00:58:42;100188.97;;;-2.93;96.71
58843;BME280;44614;54.356;10.100;2022-11-21T01:01:14;100255.25;;;-2.30;96.62
58843;BME280;44614;54.356;10.100;2022-11-21T01:03:40;100261.66;;;-2.31;96.92
58843;BME280;44614;54.356;10.100;2022-11-21T01:06:10;100271.56;;;-2.32;97.00
58843;BME280;44614;54.356;10.100;2022-11-21T01:08:38;100255.44;;;-2.32;97.05
58843;BME280;44614;54.356;10.100;2022-11-21T01:11:06;100250.03;;;-2.32;97.29
58843;BME280;44614;54.356;10.100;2022-11-21T01:13:33;100249.22;;;-2.32;97.20
58843;BME280;44614;54.356;10.100;2022-11-21T01:16:06;100255.56;;;-2.33;97.16
58843;BME280;44614;54.356;10.100;2022-11-21T01:18:33;100249.50;;;-2.35;97.42
58843;BME280;44614;54.356;10.100;2022-11-21T01:21:03;100246.97;;;-2.37;97.58
58843;BME280;44614;54.356;10.100;2022-11-21T01:23:28;100248.97;;;-2.39;97.68
58843;BME280;44614;54.356;10.100;2022-11-21T01:25:54;100250.97;;;-2.41;98.05
58843;BME280;44614;54.356;10.100;2022-11-21T01:28:19;100252.97;;;-2.43;98.11
58843;BME280;44614;54.356;10.100;2022-11-21T01:30:44;100247.06;;;-2.47;98.71
58843;BME280;44614;54.356;10.100;2022-11-21T01:33:10;100249.28;;;-2.42;98.73
58843;BME280;44614;54.356;10.100;2022-11-21T01:35:35;100252.13;;;-2.43;98.85
58843;BME280;44614;54.356;10.100;2022-11-21T01:38:00;100241.91;;;-2.40;98.95
58843;BME280;44614;54.356;10.100;2022-11-21T01:40:26;100239.22;;;-2.40;98.99
58843;BME280;44614;54.356;10.100;2022-11-21T01:43:00;100229.06;;;-2.46;98.86
58843;BME280;44614;54.356;10.100;2022-11-21T01:48:14;100238.53;;;-2.42;99.31
58843;BME280;44614;54.356;10.100;2022-11-21T01:50:40;100231.47;;;-2.43;99.26
58843;BME280;44614;54.356;10.100;2022-11-21T01:53:05;100238.22;;;-2.39;99.29
58843;BME280;44614;54.356;10.100;2022-11-21T01:55:31;100229.13;;;-2.38;99.53
58843;BME280;44614;54.356;10.100;2022-11-21T01:57:57;100235.34;;;-2.37;99.25
58843;BME280;44614;54.356;10.100;2022-11-21T02:00:28;100226.31;;;-2.36;99.30
58843;BME280;44614;54.356;10.100;2022-11-21T02:03:01;100225.44;;;-2.37;99.25
58843;BME280;44614;54.356;10.100;2022-11-21T02:05:34;100226.63;;;-2.39;99.31
58843;BME280;44614;54.356;10.100;2022-11-21T02:08:07;100219.53;;;-2.40;99.29
58843;BME280;44614;54.356;10.100;2022-11-21T02:10:35;100222.09;;;-2.39;99.77
58843;BME280;44614;54.356;10.100;2022-11-21T02:13:02;100182.22;;;-2.61;99.49
58843;BME280;44614;54.356;10.100;2022-11-21T02:15:28;100222.22;;;-2.40;99.68
58843;BME280;44614;54.356;10.100;2022-11-21T02:17:54;100222.22;;;-2.40;99.61
58843;BME280;44614;54.356;10.100;2022-11-21T02:20:22;100221.91;;;-2.37;99.71
58843;BME280;44614;54.356;10.100;2022-11-21T02:25:41;100216.00;;;-2.41;99.70
58843;BME280;44614;54.356;10.100;2022-11-21T02:28:11;100209.78;;;-2.41;99.72
58843;BME280;44614;54.356;10.100;2022-11-21T02:30:39;100061.47;;;-3.34;99.65
58843;BME280;44614;54.356;10.100;2022-11-21T02:33:05;100209.66;;;-2.40;100.00
58843;BME280;44614;54.356;10.100;2022-11-21T02:35:31;100192.91;;;-2.52;99.88
58843;BME280;44614;54.356;10.100;2022-11-21T02:38:01;100213.72;;;-2.36;99.79
58843;BME280;44614;54.356;10.100;2022-11-21T02:40:31;100210.00;;;-2.35;99.66
58843;BME280;44614;54.356;10.100;2022-11-21T02:43:13;100157.19;;;-2.62;99.58
58843;BME280;44614;54.356;10.100;2022-11-21T02:45:45;100203.63;;;-2.34;99.64
58843;BME280;44614;54.356;10.100;2022-11-21T02:48:11;100189.66;;;-2.37;99.67
58843;BME280;44614;54.356;10.100;2022-11-21T02:50:39;100192.03;;;-2.34;99.74
58843;BME280;44614;54.356;10.100;2022-11-21T02:53:08;100160.66;;;-2.52;99.67
58843;BME280;44614;54.356;10.100;2022-11-21T02:55:33;100204.38;;;-2.24;99.85
58843;BME280;44614;54.356;10.100;2022-11-21T02:57:59;100193.63;;;-2.24;99.52
58843;BME280;44614;54.356;10.100;2022-11-21T03:00:24;100187.25;;;-2.23;99.75
58843;BME280;44614;54.356;10.100;2022-11-21T03:02:50;100189.94;;;-2.23;99.39
58843;BME280;44614;54.356;10.100;2022-11-21T03:05:17;100180.00;;;-2.22;99.58
58843;BME280;44614;54.356;10.100;2022-11-21T03:07:43;100182.03;;;-2.24;99.32
58843;BME280;44614;54.356;10.100;2022-11-21T03:10:09;100173.13;;;-2.25;99.62
58843;BME280;44614;54.356;10.100;2022-11-21T03:12:36;100172.41;;;-2.27;99.55
58843;BME280;44614;54.356;10.100;2022-11-21T03:15:03;100151.00;;;-2.36;99.56
58843;BME280;44614;54.356;10.100;2022-11-21T03:17:28;100171.09;;;-2.23;99.65
58843;BME280;44614;54.356;10.100;2022-11-21T03:19:54;100160.13;;;-2.29;99.96
58843;BME280;44614;54.356;10.100;2022-11-21T03:22:19;100160.34;;;-2.23;99.72
58843;BME280;44614;54.356;10.100;2022-11-21T03:24:44;100175.47;;;-2.22;99.67
58843;BME280;44614;54.356;10.100;2022-11-21T03:27:10;100157.66;;;-2.23;99.78
58843;BME280;44614;54.356;10.100;2022-11-21T03:29:35;100169.13;;;-2.21;99.55
58843;BME280;44614;54.356;10.100;2022-11-21T03:32:00;100159.50;;;-2.23;99.58
58843;BME280;44614;54.356;10.100;2022-11-21T03:34:25;100164.41;;;-2.18;99.70
58843;BME280;44614;54.356;10.100;2022-11-21T03:36:51;100174.19;;;-2.17;99.43
58843;BME280;44614;54.356;10.100;2022-11-21T03:39:16;100162.72;;;-2.19;99.63
58843;BME280;44614;54.356;10.100;2022-11-21T03:41:42;100130.97;;;-2.42;99.52
58843;BME280;44614;54.356;10.100;2022-11-21T03:44:09;100166.56;;;-2.22;99.64
58843;BME280;44614;54.356;10.100;2022-11-21T03:46:40;100160.34;;;-2.23;99.64
58843;BME280;44614;54.356;10.100;2022-11-21T03:49:06;100167.94;;;-2.18;99.89
58843;BME280;44614;54.356;10.100;2022-11-21T03:51:32;100161.41;;;-2.15;99.94
58843;BME280;44614;54.356;10.100;2022-11-21T03:53:58;100153.50;;;-2.17;99.74
58843;BME280;44614;54.356;10.100;2022-11-21T03:56:24;100160.41;;;-2.14;99.89
58843;BME280;44614;54.356;10.100;2022-11-21T03:58:50;100167.63;;;-2.15;99.84
58843;BME280;44614;54.356;10.100;2022-11-21T04:01:15;100168.63;;;-2.16;99.96
58843;BME280;44614;54.356;10.100;2022-11-21T04:03:42;100161.72;;;-2.18;100.00
58843;BME280;44614;54.356;10.100;2022-11-21T04:06:08;100168.81;;;-2.17;100.00
58843;BME280;44614;54.356;10.100;2022-11-21T04:08:34;100155.28;;;-2.26;99.98
58843;BME280;44614;54.356;10.100;2022-11-21T04:11:00;100173.19;;;-2.16;100.00
58843;BME280;44614;54.356;10.100;2022-11-21T04:13:25;100174.84;;;-2.15;100.00
58843;BME280;44614;54.356;10.100;2022-11-21T04:15:50;100173.19;;;-2.16;100.00
58843;BME280;44614;54.356;10.100;2022-11-21T04:18:16;100162.50;;;-2.26;100.00
58843;BME280;44614;54.356;10.100;2022-11-21T04:20:42;100179.03;;;-2.21;100.00
58843;BME280;44614;54.356;10.100;2022-11-21T04:23:07;100182.88;;;-2.24;100.00
58843;BME280;44614;54.356;10.100;2022-11-21T04:25:32;100189.69;;;-2.29;100.00
58843;BME280;44614;54.356;10.100;2022-11-21T04:27:59;100140.13;;;-2.53;100.00
58843;BME280;44614;54.356;10.100;2022-11-21T04:30:25;100176.25;;;-2.29;100.00
58843;BME280;44614;54.356;10.100;2022-11-21T04:32:51;100164.47;;;-2.36;100.00
58843;BME280;44614;54.356;10.100;2022-11-21T04:35:17;100187.41;;;-2.24;100.00
58843;BME280;44614;54.356;10.100;2022-11-21T04:37:42;100186.88;;;-2.28;100.00
58843;BME280;44614;54.356;10.100;2022-11-21T04:40:08;100143.97;;;-2.55;100.00
58843;BME280;44614;54.356;10.100;2022-11-21T04:42:33;100180.13;;;-2.32;100.00
58843;BME280;44614;54.356;10.100;2022-11-21T04:44:59;100186.47;;;-2.33;100.00
58843;BME280;44614;54.356;10.100;2022-11-21T04:47:24;100194.41;;;-2.31;100.00
58843;BME280;44614;54.356;10.100;2022-11-21T04:49:49;100188.03;;;-2.30;100.00
58843;BME280;44614;54.356;10.100;2022-11-21T04:52:14;100179.13;;;-2.31;100.00
58843;BME280;44614;54.356;10.100;2022-11-21T04:54:40;100179.66;;;-2.27;100.00
58843;BME280;44614;54.356;10.100;2022-11-21T04:57:05;100175.28;;;-2.28;100.00
58843;BME280;44614;54.356;10.100;2022-11-21T04:59:30;100179.66;;;-2.27;100.00
58843;BME280;44614;54.356;10.100;2022-11-21T05:01:56;100170.22;;;-2.31;100.00
58843;BME280;44614;54.356;10.100;2022-11-21T05:04:21;100177.44;;;-2.32;100.00
58843;BME280;44614;54.356;10.100;2022-11-21T05:06:46;100180.13;;;-2.32;100.00
58843;BME280;44614;54.356;10.100;2022-11-21T05:09:12;100171.88;;;-2.30;100.00
58843;BME280;44614;54.356;10.100;2022-11-21T05:11:37;100173.56;;;-2.29;100.00
58843;BME280;44614;54.356;10.100;2022-11-21T05:14:21;100144.03;;;-2.47;100.00
58843;BME280;44614;54.356;10.100;2022-11-21T05:16:46;100170.22;;;-2.31;100.00
58843;BME280;44614;54.356;10.100;2022-11-21T05:19:11;100169.06;;;-2.29;100.00
58843;BME280;44614;54.356;10.100;2022-11-21T05:21:37;100175.59;;;-2.31;100.00
58843;BME280;44614;54.356;10.100;2022-11-21T05:24:02;100169.19;;;-2.30;100.00
58843;BME280;44614;54.356;10.100;2022-11-21T05:26:27;100163.34;;;-2.26;100.00
58843;BME280;44614;54.356;10.100;2022-11-21T05:28:52;100123.00;;;-2.52;99.87
58843;BME280;44614;54.356;10.100;2022-11-21T05:31:18;100165.06;;;-2.25;99.92
58843;BME280;44614;54.356;10.100;2022-11-21T05:33:43;100161.50;;;-2.25;100.00
58843;BME280;44614;54.356;10.100;2022-11-21T05:36:08;100149.88;;;-2.26;99.65
58843;BME280;44614;54.356;10.100;2022-11-21T05:38:34;100157.13;;;-2.26;99.77
58843;BME280;44614;54.356;10.100;2022-11-21T05:40:59;100156.97;;;-2.25;99.62
58843;BME280;44614;54.356;10.100;2022-11-21T05:43:24;100160.50;;;-2.24;99.57
58843;BME280;44614;54.356;10.100;2022-11-21T05:46:08;100152.97;;;-2.21;99.67
58843;BME280;44614;54.356;10.100;2022-11-21T05:48:34;100124.63;;;-2.33;99.44
58843;BME280;44614;54.356;10.100;2022-11-21T05:51:01;100156.63;;;-2.22;99.19
58843;BME280;44614;54.356;10.100;2022-11-21T05:53:26;100148.75;;;-2.23;99.06
58843;BME280;44614;54.356;10.100;2022-11-21T05:55:51;100152.50;;;-2.16;99.25
58843;BME280;44614;54.356;10.100;2022-11-21T05:58:17;100145.25;;;-2.15;99.05
58843;BME280;44614;54.356;10.100;2022-11-21T06:00:42;100149.81;;;-2.16;99.11
58843;BME280;44614;54.356;10.100;2022-11-21T06:03:11;100155.00;;;-2.14;98.95
58843;BME280;44614;54.356;10.100;2022-11-21T06:06:06;100145.75;;;-2.20;98.91
58843;BME280;44614;54.356;10.100;2022-11-21T06:08:35;100156.03;;;-2.15;98.67
58843;BME280;44614;54.356;10.100;2022-11-21T06:11:01;100140.50;;;-2.22;98.96
58843;BME280;44614;54.356;10.100;2022-11-21T06:13:27;100149.63;;;-2.14;98.74
58843;BME280;44614;54.356;10.100;2022-11-21T06:16:03;100153.16;;;-2.14;98.71
58843;BME280;44614;54.356;10.100;2022-11-21T06:18:31;100155.00;;;-2.14;99.04
58843;BME280;44614;54.356;10.100;2022-11-21T06:21:05;100156.72;;;-2.13;98.74
58843;BME280;44614;54.356;10.100;2022-11-21T06:23:32;100151.19;;;-2.12;98.93
58843;BME280;44614;54.356;10.100;2022-11-21T06:26:01;100149.31;;;-2.11;98.97
58843;BME280;44614;54.356;10.100;2022-11-21T06:28:29;100149.19;;;-2.10;98.64
58843;BME280;44614;54.356;10.100;2022-11-21T06:30:55;100153.69;;;-2.10;98.80
58843;BME280;44614;54.356;10.100;2022-11-21T06:33:20;100151.00;;;-2.10;98.96
58843;BME280;44614;54.356;10.100;2022-11-21T06:35:46;100149.31;;;-2.11;99.12
58843;BME280;44614;54.356;10.100;2022-11-21T06:38:11;100137.56;;;-2.10;98.98
58843;BME280;44614;54.356;10.100;2022-11-21T06:40:38;100133.03;;;-2.10;99.18
58843;BME280;44614;54.356;10.100;2022-11-21T06:43:03;100027.00;;;-2.85;98.96
58843;BME280;44614;54.356;10.100;2022-11-21T06:45:28;100121.94;;;-2.07;99.15
58843;BME280;44614;54.356;10.100;2022-11-21T06:47:54;100113.72;;;-2.05;99.12
58843;BME280;44614;54.356;10.100;2022-11-21T06:50:19;100123.00;;;-2.00;98.88
58843;BME280;44614;54.356;10.100;2022-11-21T06:52:44;100118.00;;;-1.94;99.05
58843;BME280;44614;54.356;10.100;2022-11-21T06:55:10;100118.84;;;-1.94;98.89
58843;BME280;44614;54.356;10.100;2022-11-21T06:57:35;100127.56;;;-1.92;98.91
58843;BME280;44614;54.356;10.100;2022-11-21T07:00:02;100090.97;;;-2.11;98.85
58843;BME280;44614;54.356;10.100;2022-11-21T07:02:27;100121.19;;;-1.91;99.22
58843;BME280;44614;54.356;10.100;2022-11-21T07:04:52;100127.44;;;-1.90;99.18
58843;BME280;44614;54.356;10.100;2022-11-21T07:07:18;100126.25;;;-1.88;99.41
58843;BME280;44614;54.356;10.100;2022-11-21T07:09:43;100133.84;;;-1.83;99.34
58843;BME280;44614;54.356;10.100;2022-11-21T07:12:08;100122.19;;;-1.92;99.28
58843;BME280;44614;54.356;10.100;2022-11-21T07:14:52;100126.47;;;-1.81;99.16
58843;BME280;44614;54.356;10.100;2022-11-21T07:17:18;100131.00;;;-1.82;99.04
58843;BME280;44614;54.356;10.100;2022-11-21T07:19:43;100128.84;;;-1.78;98.89
58843;BME280;44614;54.356;10.100;2022-11-21T07:22:08;100132.19;;;-1.76;99.00
58843;BME280;44614;54.356;10.100;2022-11-21T07:24:34;100128.53;;;-1.75;98.87
58843;BME280;44614;54.356;10.100;2022-11-21T07:27:00;100118.91;;;-1.78;99.15
58843;BME280;44614;54.356;10.100;2022-11-21T07:29:26;100124.81;;;-1.74;99.02
58843;BME280;44614;54.356;10.100;2022-11-21T07:31:51;100125.16;;;-1.69;99.05
58843;BME280;44614;54.356;10.100;2022-11-21T07:34:16;100119.63;;;-1.67;98.93
58843;BME280;44614;54.356;10.100;2022-11-21T07:36:41;100118.63;;;-1.66;98.87
58843;BME280;44614;54.356;10.100;2022-11-21T07:39:07;100121.16;;;-1.65;99.08
58843;BME280;44614;54.356;10.100;2022-11-21T07:41:32;100121.97;;;-1.64;98.96
58843;BME280;44614;54.356;10.100;2022-11-21T07:43:57;100113.75;;;-1.63;99.13
58843;BME280;44614;54.356;10.100;2022-11-21T07:46:23;100121.66;;;-1.61;99.09
58843;BME280;44614;54.356;10.100;2022-11-21T07:48:48;100109.88;;;-1.60;99.05
58843;BME280;44614;54.356;10.100;2022-11-21T07:51:13;100113.44;;;-1.60;99.15
58843;BME280;44614;54.356;10.100;2022-11-21T07:53:39;100101.63;;;-1.67;99.18
58843;BME280;44614;54.356;10.100;2022-11-21T07:56:04;100113.97;;;-1.56;99.22
58843;BME280;44614;54.356;10.100;2022-11-21T07:58:29;100109.56;;;-1.57;98.81
58843;BME280;44614;54.356;10.100;2022-11-21T08:00:55;100112.63;;;-1.52;98.90
58843;BME280;44614;54.356;10.100;2022-11-21T08:03:20;100116.00;;;-1.50;98.77
58843;BME280;44614;54.356;10.100;2022-11-21T08:05:47;100106.88;;;-1.49;98.62
58843;BME280;44614;54.356;10.100;2022-11-21T08:08:13;100099.50;;;-1.47;98.58
58843;BME280;44614;54.356;10.100;2022-11-21T08:10:40;100098.16;;;-1.43;98.26
58843;BME280;44614;54.356;10.100;2022-11-21T08:13:06;100109.47;;;-1.39;98.49
58843;BME280;44614;54.356;10.100;2022-11-21T08:15:31;100100.22;;;-1.37;98.51
58843;BME280;44614;54.356;10.100;2022-11-21T08:17:57;100100.22;;;-1.37;98.07
58843;BME280;44614;54.356;10.100;2022-11-21T08:20:22;100102.56;;;-1.34;98.12
58843;BME280;44614;54.356;10.100;2022-11-21T08:22:48;100107.63;;;-1.31;98.03
58843;BME280;44614;54.356;10.100;2022-11-21T08:25:13;100090.44;;;-1.38;97.95
58843;BME280;44614;54.356;10.100;2022-11-21T08:27:39;100100.91;;;-1.27;97.76
58843;BME280;44614;54.356;10.100;2022-11-21T08:30:09;100088.25;;;-1.34;97.97
58843;BME280;44614;54.356;10.100;2022-11-21T08:32:35;100102.25;;;-1.23;97.87
58843;BME280;44614;54.356;10.100;2022-11-21T08:35:00;100098.56;;;-1.21;97.64
58843;BME280;44614;54.356;10.100;2022-11-21T08:37:29;100083.91;;;-1.19;97.68
58843;BME280;44614;54.356;10.100;2022-11-21T08:39:54;100093.53;;;-1.16;97.46
58843;BME280;44614;54.356;10.100;2022-11-21T08:42:20;100098.72;;;-1.15;97.67
58843;BME280;44614;54.356;10.100;2022-11-21T08:44:45;100102.97;;;-1.12;97.54
58843;BME280;44614;54.356;10.100;2022-11-21T08:47:10;100110.72;;;-1.17;97.16
58843;BME280;44614;54.356;10.100;2022-11-21T08:49:36;100099.75;;;-1.08;97.10
58843;BME280;44614;54.356;10.100;2022-11-21T08:52:01;100103.16;;;-1.06;97.45
58843;BME280;44614;54.356;10.100;2022-11-21T08:54:26;100099.25;;;-1.03;97.56
58843;BME280;44614;54.356;10.100;2022-11-21T08:56:52;100096.41;;;-1.02;97.47
58843;BME280;44614;54.356;10.100;2022-11-21T08:59:17;100095.72;;;-1.04;97.29
58843;BME280;44614;54.356;10.100;2022-11-21T09:01:43;100101.63;;;-1.00;97.03
58843;BME280;44614;54.356;10.100;2022-11-21T09:04:09;100100.63;;;-0.99;97.01
58843;BME280;44614;54.356;10.100;2022-11-21T09:06:34;100093.22;;;-0.97;97.25
58843;BME280;44614;54.356;10.100;2022-11-21T09:09:00;100096.25;;;-1.00;96.63
58843;BME280;44614;54.356;10.100;2022-11-21T09:11:26;100099.63;;;-0.98;96.83
58843;BME280;44614;54.356;10.100;2022-11-21T09:13:52;100097.59;;;-0.96;96.98
58843;BME280;44614;54.356;10.100;2022-11-21T09:16:37;100053.44;;;-1.19;96.75
58843;BME280;44614;54.356;10.100;2022-11-21T09:19:22;100098.28;;;-0.94;96.69
58843;BME280;44614;54.356;10.100;2022-11-21T09:21:50;100101.63;;;-0.92;96.78
58843;BME280;44614;54.356;10.100;2022-11-21T09:24:16;100099.63;;;-0.90;97.16
58843;BME280;44614;54.356;10.100;2022-11-21T09:26:41;100102.00;;;-0.87;97.43
58843;BME280;44614;54.356;10.100;2022-11-21T09:29:07;100104.84;;;-0.88;96.56
58843;BME280;44614;54.356;10.100;2022-11-21T09:31:35;100105.69;;;-0.88;96.69
58843;BME280;44614;54.356;10.100;2022-11-21T09:34:01;100105.53;;;-0.86;96.68
58843;BME280;44614;54.356;10.100;2022-11-21T09:36:26;100100.66;;;-0.83;96.82
58843;BME280;44614;54.356;10.100;2022-11-21T09:38:52;100109.56;;;-0.82;96.69
58843;BME280;44614;54.356;10.100;2022-11-21T09:44:20;100109.41;;;-0.81;96.62
58843;BME280;44614;54.356;10.100;2022-11-21T09:46:55;100113.44;;;-0.77;96.87
58843;BME280;44614;54.356;10.100;2022-11-21T09:49:24;100114.97;;;-0.74;96.66
58843;BME280;44614;54.356;10.100;2022-11-21T09:51:50;100108.56;;;-0.73;96.40
58843;BME280;44614;54.356;10.100;2022-11-21T09:54:27;100113.09;;;-0.74;96.60
58843;BME280;44614;54.356;10.100;2022-11-21T09:56:56;100104.88;;;-0.72;96.68
58843;BME280;44614;54.356;10.100;2022-11-21T09:59:27;100109.06;;;-0.69;96.52
58843;BME280;44614;54.356;10.100;2022-11-21T10:01:56;100111.75;;;-0.69;96.50
58843;BME280;44614;54.356;10.100;2022-11-21T10:04:22;100109.25;;;-0.71;96.39
58843;BME280;44614;54.356;10.100;2022-11-21T10:18:15;100097.44;;;-0.70;96.45
58843;BME280;44614;54.356;10.100;2022-11-21T10:20:53;100098.13;;;-0.68;96.57
58843;BME280;44614;54.356;10.100;2022-11-21T10:23:33;100100.97;;;-0.61;96.99
58843;BME280;44614;54.356;10.100;2022-11-21T10:31:55;100096.09;;;-0.58;96.70
58843;BME280;44614;54.356;10.100;2022-11-21T10:34:29;100093.25;;;-0.56;96.68
58843;BME280;44614;54.356;10.100;2022-11-21T10:37:14;100092.22;;;-0.55;96.49
58843;BME280;44614;54.356;10.100;2022-11-21T10:39:45;100017.25;;;-1.09;96.32
58843;BME280;44614;54.356;10.100;2022-11-21T10:45:24;100081.41;;;-0.47;96.77
58843;BME280;44614;54.356;10.100;2022-11-21T10:47:51;100086.47;;;-0.44;96.46
58843;BME280;44614;54.356;10.100;2022-11-21T10:50:40;100080.06;;;-0.43;96.38
58843;BME280;44614;54.356;10.100;2022-11-21T10:53:21;100080.75;;;-0.41;96.17
58843;BME280;44614;54.356;10.100;2022-11-21T10:56:08;100084.94;;;-0.38;96.41
58843;BME280;44614;54.356;10.100;2022-11-21T11:01:05;100078.22;;;-0.34;96.15
58843;BME280;44614;54.356;10.100;2022-11-21T11:03:31;100093.19;;;-0.32;96.18
58843;BME280;44614;54.356;10.100;2022-11-21T11:05:56;100086.78;;;-0.31;95.73
58843;BME280;44614;54.356;10.100;2022-11-21T11:08:22;100083.25;;;-0.31;95.54
58843;BME280;44614;54.356;10.100;2022-11-21T11:11:05;100077.69;;;-0.30;95.22
58843;BME280;44614;54.356;10.100;2022-11-21T11:13:31;100072.28;;;-0.30;95.38
58843;BME280;44614;54.356;10.100;2022-11-21T11:16:05;100069.09;;;-0.25;95.23
58843;BME280;44614;54.356;10.100;2022-11-21T11:19:23;100080.38;;;-0.21;94.91
58843;BME280;44614;54.356;10.100;2022-11-21T11:21:49;100080.38;;;-0.21;95.32
58843;BME280;44614;54.356;10.100;2022-11-21T11:34:39;100065.84;;;-0.12;94.03
58843;BME280;44614;54.356;10.100;2022-11-21T11:46:18;100049.78;;;-0.06;93.20
58843;BME280;44614;54.356;10.100;2022-11-21T11:48:36;100047.25;;;0.01;93.24
58843;BME280;44614;54.356;10.100;2022-11-21T11:51:27;100042.69;;;0.02;92.21
58843;BME280;44614;54.356;10.100;2022-11-21T11:54:01;100033.22;;;0.06;92.52
58843;BME280;44614;54.356;10.100;2022-11-21T11:56:35;100037.44;;;0.08;92.85
58843;BME280;44614;54.356;10.100;2022-11-21T11:59:03;100036.41;;;0.09;92.37
58843;BME280;44614;54.356;10.100;2022-11-21T12:01:41;100029.66;;;0.13;92.51
58843;BME280;44614;54.356;10.100;2022-11-21T12:04:17;100020.38;;;0.16;92.77
58843;BME280;44614;54.356;10.100;2022-11-21T12:07:03;100019.00;;;0.20;92.80
58843;BME280;44614;54.356;10.100;2022-11-21T12:09:44;100027.94;;;0.20;92.13
58843;BME280;44614;54.356;10.100;2022-11-21T12:15:01;100021.81;;;0.27;90.58
58843;BME280;44614;54.356;10.100;2022-11-21T12:20:27;100022.97;;;0.32;91.16
58843;BME280;44614;54.356;10.100;2022-11-21T12:22:55;100014.69;;;0.34;90.51
58843;BME280;44614;54.356;10.100;2022-11-21T12:25:27;100005.59;;;0.35;90.30
58843;BME280;44614;54.356;10.100;2022-11-21T12:27:54;100016.00;;;0.38;90.56
58843;BME280;44614;54.356;10.100;2022-11-21T12:30:46;100010.25;;;0.41;90.73
58843;BME280;44614;54.356;10.100;2022-11-21T12:33:21;100012.63;;;0.44;91.14
58843;BME280;44614;54.356;10.100;2022-11-21T12:38:46;100010.41;;;0.47;91.33
58843;BME280;44614;54.356;10.100;2022-11-21T12:44:59;100005.28;;;0.53;91.10
58843;BME280;44614;54.356;10.100;2022-11-21T12:56:55;99993.50;;;0.54;90.15
58843;BME280;44614;54.356;10.100;2022-11-21T12:59:23;99998.03;;;0.53;90.88
58843;BME280;44614;54.356;10.100;2022-11-21T13:02:11;99990.59;;;0.55;91.51
58843;BME280;44614;54.356;10.100;2022-11-21T13:04:44;99972.72;;;0.54;91.51
58843;BME280;44614;54.356;10.100;2022-11-21T13:07:12;99969.81;;;0.56;91.54
58843;BME280;44614;54.356;10.100;2022-11-21T13:09:45;99977.72;;;0.57;91.97
58843;BME280;44614;54.356;10.100;2022-11-21T13:14:52;99975.03;;;0.57;92.40
58843;BME280;44614;54.356;10.100;2022-11-21T13:22:49;99973.34;;;0.56;92.03
58843;BME280;44614;54.356;10.100;2022-11-21T13:30:49;99992.28;;;0.56;93.19
58843;BME280;44614;54.356;10.100;2022-11-21T13:36:00;99970.38;;;0.51;93.45
58843;BME280;44614;54.356;10.100;2022-11-21T13:38:26;99969.81;;;0.56;93.31
58843;BME280;44614;54.356;10.100;2022-11-21T13:40:51;99974.38;;;0.55;93.24
58843;BME280;44614;54.356;10.100;2022-11-21T13:43:36;99968.69;;;0.50;93.41
58843;BME280;44614;54.356;10.100;2022-11-21T13:46:02;99977.44;;;0.52;92.79
58843;BME280;44614;54.356;10.100;2022-11-21T14:05:45;99975.09;;;0.49;94.29
58843;BME280;44614;54.356;10.100;2022-11-21T14:08:21;99969.38;;;0.44;94.56
58843;BME280;44614;54.356;10.100;2022-11-21T14:10:49;99955.59;;;0.39;95.04
58843;BME280;44614;54.356;10.100;2022-11-21T14:13:30;99975.47;;;0.46;94.85
58843;BME280;44614;54.356;10.100;2022-11-21T14:18:37;99962.31;;;0.43;94.96
58843;BME280;44614;54.356;10.100;2022-11-21T14:21:02;99971.59;;;0.40;94.98
58843;BME280;44614;54.356;10.100;2022-11-21T14:23:29;99966.22;;;0.40;95.41
58843;BME280;44614;54.356;10.100;2022-11-21T14:26:01;99974.13;;;0.42;95.12
58843;BME280;44614;54.356;10.100;2022-11-21T14:28:29;99968.56;;;0.43;95.31
58843;BME280;44614;54.356;10.100;2022-11-21T14:31:03;99973.97;;;0.43;95.54
58843;BME280;44614;54.356;10.100;2022-11-21T14:33:29;99963.16;;;0.43;95.69